Maersk Drummond — A8JF3 — position and weather

sailwx.info

Track history (hours):
 
Tides and Currents Weather Stations Pressure Air Temp Water Temp Dewpoint Dewpoint Depression Visibility Wind Speed Wind Dir Waves Ship Positions

Maersk Drummond

Last reported at 2015-Jan-25 13:33 UTC. Time now 2015-Jan-27 12:24 UTC.
Position N 19°40' W 096°08'.

Length 294 m; draft 10 m.

Type: Ship (hazmat cat A). MMSI: 636091082.

Date/timePositionNaut miles runAvg speedWind from/ knotsBaromVisibWave heightAir tempDewpointWater temp
2015-Jan-25 13:33N 19°40' W 096°08'1414.2
2015-Jan-25 12:33N 19°27' W 096°02'1313.1
2015-Jan-25 11:33N 19°15' W 095°58'10 9.5
2015-Jan-25 10:34N 19°12' W 096°08'0 0.3
2015-Jan-25 09:33N 19°13' W 096°08'0 0.0
2015-Jan-25 08:33N 19°13' W 096°08'0 0.0
2015-Jan-25 07:33N 19°13' W 096°08'0 0.0
2015-Jan-25 06:33N 19°13' W 096°08'0 0.0
2015-Jan-25 05:33N 19°13' W 096°08'0 0.0
2015-Jan-25 04:33N 19°13' W 096°08'0 0.0
2015-Jan-25 03:33N 19°13' W 096°08'0 0.0
2015-Jan-25 02:33N 19°13' W 096°08'0 0.0
2015-Jan-25 01:33N 19°13' W 096°08'0 0.0
2015-Jan-25 00:33N 19°13' W 096°08'0 0.0
2015-Jan-24 23:33N 19°13' W 096°08'0 0.0
2015-Jan-24 22:34N 19°13' W 096°08'6 6.3
2015-Jan-24 21:34N 19°12' W 096°01'1111.5
2015-Jan-24 20:33N 19°17' W 095°50'2 1.9
2015-Jan-24 19:33N 19°19' W 095°50'2 2.2
2015-Jan-24 18:33N 19°21' W 095°50'6 6.5
2015-Jan-24 17:33N 19°15' W 095°50'  
Track history (hours):
 
Tides and Currents Weather Stations Pressure Air Temp Water Temp Dewpoint Dewpoint Depression Visibility Wind Speed Wind Dir Waves Ship Positions

Maersk Drummond

Last reported at 2015-Jan-25 13:33 UTC. Time now 2015-Jan-27 12:24 UTC.
Position N 19°40' W 096°08'.

Length 294 m; draft 10 m.

Type: Ship (hazmat cat A). MMSI: 636091082.

Date/timePositionNaut miles runAvg speedWind from/ knotsBaromVisibWave heightAir tempDewpointWater temp
2015-Jan-25 13:33N 19°40' W 096°08'1414.2
2015-Jan-25 12:33N 19°27' W 096°02'1313.1
2015-Jan-25 11:33N 19°15' W 095°58'10 9.5
2015-Jan-25 10:34N 19°12' W 096°08'0 0.3
2015-Jan-25 09:33N 19°13' W 096°08'0 0.0
2015-Jan-25 08:33N 19°13' W 096°08'0 0.0
2015-Jan-25 07:33N 19°13' W 096°08'0 0.0
2015-Jan-25 06:33N 19°13' W 096°08'0 0.0
2015-Jan-25 05:33N 19°13' W 096°08'0 0.0
2015-Jan-25 04:33N 19°13' W 096°08'0 0.0
2015-Jan-25 03:33N 19°13' W 096°08'0 0.0
2015-Jan-25 02:33N 19°13' W 096°08'0 0.0
2015-Jan-25 01:33N 19°13' W 096°08'0 0.0
2015-Jan-25 00:33N 19°13' W 096°08'0 0.0
2015-Jan-24 23:33N 19°13' W 096°08'0 0.0
2015-Jan-24 22:34N 19°13' W 096°08'6 6.3
2015-Jan-24 21:34N 19°12' W 096°01'1111.5
2015-Jan-24 20:33N 19°17' W 095°50'2 1.9
2015-Jan-24 19:33N 19°19' W 095°50'2 2.2
2015-Jan-24 18:33N 19°21' W 095°50'6 6.5
2015-Jan-24 17:33N 19°15' W 095°50'  

Dump ship's entire track history